Time;durP1;ratioP1;P1;durP2;ratioP2;P2;SDS_P1;SDS_P2;PMS_P1;PMS_P2;Temp;Humidity;BMP_temperature;BMP_pressure;BME280_temperature;BME280_humidity;BME280_pressure;Samples;Min_cycle;Max_cycle;Signal;HPM_P1;HPM_P2
2021/01/27 00:00:39;;;;;;;11.20;9.53;;;2.90;99.90;;;;;;5057273;28;20461;-65
2021/01/27 00:03:05;;;;;;;11.60;10.40;;;2.90;99.90;;;;;;5062354;28;20457;-65
2021/01/27 00:05:44;;;;;;;9.80;8.80;;;2.80;99.90;;;;;;5057767;28;20192;-65
2021/01/27 00:08:10;;;;;;;12.93;9.47;;;2.80;99.90;;;;;;5062882;28;20811;-65
2021/01/27 00:10:36;;;;;;;10.83;9.73;;;2.80;99.90;;;;;;5055293;28;20461;-66
2021/01/27 00:13:07;;;;;;;14.63;9.83;;;2.70;99.90;;;;;;5063629;28;20198;-65
2021/01/27 00:15:35;;;;;;;11.17;9.30;;;2.70;99.90;;;;;;5060330;28;20453;-65
2021/01/27 00:18:00;;;;;;;9.43;8.43;;;2.70;99.90;;;;;;5060928;28;20517;-65
2021/01/27 00:20:28;;;;;;;9.70;8.80;;;2.70;99.90;;;;;;5059642;28;21129;-65
2021/01/27 00:22:54;;;;;;;10.67;9.43;;;2.60;99.90;;;;;;5053125;28;20201;-65
2021/01/27 00:25:24;;;;;;;9.90;8.70;;;2.60;99.90;;;;;;5058829;28;20440;-65
2021/01/27 00:27:50;;;;;;;11.37;8.90;;;2.50;99.90;;;;;;5056465;28;20426;-65
2021/01/27 00:30:30;;;;;;;10.30;8.50;;;2.50;99.90;;;;;;5053888;28;20854;-65
2021/01/27 00:32:57;;;;;;;10.30;9.30;;;2.40;99.90;;;;;;5061815;28;20775;-65
2021/01/27 00:35:29;;;;;;;13.20;10.33;;;2.40;99.90;;;;;;5055776;28;20498;-65
2021/01/27 00:37:58;;;;;;;11.33;9.37;;;2.40;99.90;;;;;;5065230;28;20421;-65
2021/01/27 00:40:24;;;;;;;10.27;8.83;;;2.40;99.90;;;;;;5061509;28;20441;-65
2021/01/27 00:42:50;;;;;;;10.20;9.17;;;2.40;99.90;;;;;;5061248;28;20422;-65
2021/01/27 00:45:16;;;;;;;12.17;10.27;;;2.40;99.90;;;;;;5057198;28;20590;-65
2021/01/27 00:47:42;;;;;;;11.00;9.50;;;2.30;99.90;;;;;;5063762;28;20954;-65
2021/01/27 00:50:08;;;;;;;12.10;9.13;;;2.30;99.90;;;;;;5058257;28;20452;-65
2021/01/27 00:52:34;;;;;;;11.00;9.40;;;2.40;99.90;;;;;;5054614;28;20164;-65
2021/01/27 00:54:59;;;;;;;10.20;8.63;;;2.30;99.90;;;;;;5054968;28;20429;-65
2021/01/27 00:57:25;;;;;;;13.43;9.40;;;2.30;99.90;;;;;;5066909;28;20179;-65
2021/01/27 00:59:50;;;;;;;8.00;7.20;;;2.30;99.90;;;;;;5062741;28;20604;-65
2021/01/27 01:02:16;;;;;;;9.73;8.03;;;2.30;99.90;;;;;;5063538;28;20172;-65
2021/01/27 01:04:41;;;;;;;11.80;8.30;;;2.30;99.90;;;;;;5057562;28;20688;-65
2021/01/27 01:07:07;;;;;;;9.70;8.63;;;2.30;99.90;;;;;;5063083;28;20634;-65
2021/01/27 01:09:32;;;;;;;8.50;7.67;;;2.30;99.90;;;;;;5060405;28;20176;-65
2021/01/27 01:11:58;;;;;;;10.70;7.40;;;2.30;99.90;;;;;;5062051;28;20199;-65
2021/01/27 01:14:25;;;;;;;12.00;8.20;;;2.30;99.90;;;;;;5060546;28;20214;-65
2021/01/27 01:16:51;;;;;;;9.20;8.30;;;2.30;99.90;;;;;;5054681;28;20183;-65
2021/01/27 01:19:16;;;;;;;8.60;7.90;;;2.30;99.90;;;;;;5055169;28;20827;-65
2021/01/27 01:21:42;;;;;;;8.13;7.37;;;2.30;99.90;;;;;;5059614;28;20195;-65
2021/01/27 01:24:08;;;;;;;12.27;8.97;;;2.30;99.90;;;;;;5053537;28;20192;-65
2021/01/27 01:26:33;;;;;;;9.63;8.30;;;2.20;99.90;;;;;;5061751;28;20184;-65
2021/01/27 01:28:59;;;;;;;9.50;8.50;;;2.30;99.90;;;;;;5057779;28;20604;-65
2021/01/27 01:31:24;;;;;;;9.13;8.13;;;2.20;99.90;;;;;;5058767;28;20176;-65
2021/01/27 01:33:50;;;;;;;8.10;7.30;;;2.20;99.90;;;;;;5062544;28;20223;-65
2021/01/27 01:36:15;;;;;;;10.40;8.07;;;2.20;99.90;;;;;;5053134;28;20183;-65
2021/01/27 01:38:41;;;;;;;9.20;8.07;;;2.20;99.90;;;;;;5052275;28;20371;-65
2021/01/27 01:41:07;;;;;;;13.20;9.37;;;2.20;99.90;;;;;;5056665;28;20172;-65
2021/01/27 01:43:38;;;;;;;10.93;8.07;;;2.20;99.90;;;;;;5066769;28;20673;-65
2021/01/27 01:46:20;;;;;;;8.60;7.80;;;2.20;99.90;;;;;;5053151;28;20180;-65
2021/01/27 01:48:59;;;;;;;9.53;8.50;;;2.10;99.90;;;;;;5064280;28;20430;-65
2021/01/27 01:51:31;;;;;;;8.47;7.67;;;2.10;99.90;;;;;;5059077;28;20422;-65
2021/01/27 01:54:01;;;;;;;9.80;8.27;;;2.20;99.90;;;;;;5063787;28;20422;-65
2021/01/27 01:56:30;;;;;;;10.27;8.57;;;2.10;99.90;;;;;;5062994;28;20438;-65
2021/01/27 01:58:59;;;;;;;9.30;8.50;;;2.20;99.90;;;;;;5062909;28;20427;-65
2021/01/27 02:01:25;;;;;;;10.10;8.83;;;2.20;99.90;;;;;;5053380;28;20997;-65
2021/01/27 02:03:53;;;;;;;9.00;8.07;;;2.20;99.90;;;;;;5051309;28;20458;-65
2021/01/27 02:06:19;;;;;;;8.20;7.40;;;2.20;99.90;;;;;;5052483;28;20516;-65
2021/01/27 02:08:54;;;;;;;9.00;8.10;;;2.30;99.90;;;;;;5050764;28;20488;-66
2021/01/27 02:11:30;;;;;;;11.23;8.40;;;2.30;99.90;;;;;;5060401;28;20430;-65
2021/01/27 02:14:18;;;;;;;9.70;7.90;;;2.30;99.90;;;;;;5052572;28;21046;-65
2021/01/27 02:17:18;;;;;;;9.93;7.83;;;2.30;99.90;;;;;;5052625;28;20830;-65
2021/01/27 02:20:17;;;;;;;9.37;7.97;;;2.30;99.90;;;;;;5055718;28;20557;-65
2021/01/27 02:22:53;;;;;;;9.70;8.30;;;2.30;99.90;;;;;;5057754;28;20441;-65
2021/01/27 02:25:48;;;;;;;8.00;7.20;;;2.30;99.90;;;;;;5052349;28;20484;-65
2021/01/27 02:28:38;;;;;;;8.93;8.03;;;2.30;99.90;;;;;;5059228;28;20422;-65
2021/01/27 02:31:14;;;;;;;9.00;7.63;;;2.40;99.90;;;;;;5053393;28;20484;-65
2021/01/27 02:34:24;;;;;;;12.33;8.70;;;2.30;99.90;;;;;;5062600;28;20473;-65
2021/01/27 02:36:55;;;;;;;8.10;7.30;;;2.40;99.90;;;;;;5043755;28;20443;-65
2021/01/27 02:39:26;;;;;;;12.00;8.23;;;2.40;99.90;;;;;;5061049;28;20458;-65
2021/01/27 02:42:03;;;;;;;8.20;7.27;;;2.40;99.90;;;;;;5059374;28;20441;-65
2021/01/27 02:44:40;;;;;;;9.63;7.50;;;2.40;99.90;;;;;;5051435;28;20469;-65
2021/01/27 02:47:16;;;;;;;7.73;6.93;;;2.30;99.90;;;;;;5053374;28;20425;-65
2021/01/27 02:50:00;;;;;;;11.10;7.40;;;2.30;99.90;;;;;;5052630;28;20456;-65
2021/01/27 02:52:34;;;;;;;9.00;7.07;;;2.30;99.90;;;;;;5065595;28;20901;-65
2021/01/27 02:55:26;;;;;;;10.03;7.60;;;2.30;99.90;;;;;;5052564;28;20541;-65
2021/01/27 02:58:49;;;;;;;11.30;7.20;;;2.40;99.90;;;;;;5053698;28;20508;-65
2021/01/27 03:01:29;;;;;;;9.43;6.90;;;2.40;99.90;;;;;;5010308;28;20893;-65
2021/01/27 03:04:02;;;;;;;7.83;6.80;;;2.40;99.90;;;;;;5053017;28;20449;-65
2021/01/27 03:06:28;;;;;;;6.87;6.17;;;2.40;99.90;;;;;;5064576;28;20549;-65
2021/01/27 03:09:11;;;;;;;16.63;7.43;;;2.40;99.90;;;;;;5063629;28;20430;-65
2021/01/27 03:11:37;;;;;;;9.43;7.63;;;2.40;99.90;;;;;;5057389;28;20511;-65
2021/01/27 03:14:04;;;;;;;7.40;6.33;;;2.40;99.90;;;;;;5056497;28;20938;-65
2021/01/27 03:16:43;;;;;;;8.67;7.37;;;2.40;99.90;;;;;;5057188;28;20188;-65
2021/01/27 03:19:22;;;;;;;6.83;6.13;;;2.30;99.90;;;;;;5061513;28;20429;-65
2021/01/27 03:21:53;;;;;;;6.50;5.50;;;2.30;99.90;;;;;;5061840;28;20427;-65
2021/01/27 03:24:21;;;;;;;8.00;5.50;;;2.30;99.90;;;;;;5066311;28;20974;-65
2021/01/27 03:26:58;;;;;;;5.93;5.33;;;2.40;99.90;;;;;;5070305;28;20457;-65
2021/01/27 03:29:47;;;;;;;7.23;6.07;;;2.40;99.90;;;;;;5053958;28;20839;-65
2021/01/27 03:32:33;;;;;;;5.60;4.73;;;2.40;99.90;;;;;;5063054;28;20426;-65
2021/01/27 03:35:10;;;;;;;4.90;4.40;;;2.30;99.90;;;;;;5058367;28;20442;-65
2021/01/27 03:38:00;;;;;;;5.23;4.33;;;2.30;99.90;;;;;;5054119;28;20448;-65
2021/01/27 03:40:27;;;;;;;4.43;3.83;;;2.30;99.90;;;;;;5077114;28;20975;-66
2021/01/27 03:43:14;;;;;;;7.73;3.80;;;2.30;99.90;;;;;;5060554;28;20458;-66
2021/01/27 03:45:47;;;;;;;4.70;3.93;;;2.30;99.90;;;;;;5063968;28;20446;-66
2021/01/27 03:48:39;;;;;;;7.00;3.87;;;2.30;99.90;;;;;;5055497;28;20429;-65
2021/01/27 03:51:05;;;;;;;8.27;4.90;;;2.30;99.90;;;;;;5068066;28;20509;-65
2021/01/27 03:53:33;;;;;;;5.83;4.43;;;2.30;99.90;;;;;;5064201;28;20433;-65
2021/01/27 03:56:17;;;;;;;6.90;4.70;;;2.30;99.90;;;;;;5063105;28;20433;-65
2021/01/27 03:58:46;;;;;;;5.00;4.50;;;2.30;99.90;;;;;;5058841;28;20798;-66
2021/01/27 04:01:21;;;;;;;4.73;4.33;;;2.30;99.90;;;;;;5060882;28;20487;-66
2021/01/27 04:03:48;;;;;;;5.57;4.93;;;2.30;99.90;;;;;;5057310;28;20560;-66
2021/01/27 04:06:14;;;;;;;7.53;4.87;;;2.30;99.90;;;;;;5053954;28;20431;-66
2021/01/27 04:08:40;;;;;;;9.00;4.70;;;2.20;99.90;;;;;;5056102;28;20445;-66
2021/01/27 04:11:06;;;;;;;4.83;4.33;;;2.20;99.90;;;;;;5055339;28;20325;-66
2021/01/27 04:13:33;;;;;;;6.27;5.30;;;2.20;99.90;;;;;;5066563;28;20176;-66
2021/01/27 04:15:58;;;;;;;6.33;5.73;;;2.20;99.90;;;;;;5056049;28;20438;-66
2021/01/27 04:18:25;;;;;;;5.63;5.00;;;2.20;99.90;;;;;;5060909;28;20422;-66
2021/01/27 04:20:50;;;;;;;5.17;4.77;;;2.20;99.90;;;;;;5064196;28;20521;-66
2021/01/27 04:23:16;;;;;;;5.80;5.10;;;2.30;99.90;;;;;;5067166;28;21077;-65
2021/01/27 04:25:42;;;;;;;5.60;4.70;;;2.30;99.90;;;;;;5062197;28;20267;-66
2021/01/27 04:28:07;;;;;;;5.87;5.23;;;2.40;99.90;;;;;;5061894;28;20207;-66
2021/01/27 04:30:35;;;;;;;6.73;5.13;;;2.40;99.90;;;;;;5053159;28;20717;-65
2021/01/27 04:33:03;;;;;;;6.10;5.00;;;2.40;99.90;;;;;;5056992;28;20573;-66
2021/01/27 04:35:29;;;;;;;7.00;5.07;;;2.40;99.90;;;;;;5054305;28;20523;-66
2021/01/27 04:37:55;;;;;;;4.80;4.40;;;2.40;99.90;;;;;;5054772;28;20433;-66
2021/01/27 04:40:31;;;;;;;5.57;4.63;;;2.40;99.90;;;;;;5053726;28;20454;-66
2021/01/27 04:42:57;;;;;;;7.60;4.50;;;2.40;99.90;;;;;;5063103;28;20190;-65
2021/01/27 04:45:23;;;;;;;6.67;4.27;;;2.30;99.90;;;;;;5055172;28;20430;-65
2021/01/27 04:48:06;;;;;;;5.00;4.30;;;2.30;99.90;;;;;;5055582;28;20502;-66
2021/01/27 04:50:37;;;;;;;4.83;4.33;;;2.30;99.90;;;;;;5053383;28;20180;-66
2021/01/27 04:53:38;;;;;;;5.93;4.70;;;2.30;99.90;;;;;;5060875;28;20511;-66
2021/01/27 04:56:19;;;;;;;4.70;4.30;;;2.30;99.90;;;;;;5053862;28;20507;-66
2021/01/27 04:59:09;;;;;;;8.57;6.20;;;2.30;99.90;;;;;;5055333;28;20831;-65
2021/01/27 05:02:03;;;;;;;5.93;4.43;;;2.30;99.90;;;;;;5059176;28;20484;-65
2021/01/27 05:05:02;;;;;;;5.57;4.77;;;2.20;99.90;;;;;;5062843;28;20520;-65
2021/01/27 05:07:37;;;;;;;5.00;4.50;;;2.30;99.90;;;;;;5054829;28;20441;-66
2021/01/27 05:10:04;;;;;;;7.23;4.87;;;2.30;99.90;;;;;;5054206;28;20483;-66
2021/01/27 05:12:50;;;;;;;8.10;4.23;;;2.30;99.90;;;;;;5054323;28;20433;-66
2021/01/27 05:15:16;;;;;;;7.50;5.37;;;2.30;99.90;;;;;;5054775;28;20438;-66
2021/01/27 05:17:45;;;;;;;7.33;5.67;;;2.30;99.90;;;;;;5057034;28;20425;-66
2021/01/27 05:20:13;;;;;;;8.03;5.00;;;2.30;99.90;;;;;;5064696;28;20438;-66
2021/01/27 05:22:40;;;;;;;5.53;5.00;;;2.30;99.90;;;;;;5055059;28;20495;-66
2021/01/27 05:25:11;;;;;;;8.67;5.77;;;2.30;99.90;;;;;;5051448;28;20466;-66
2021/01/27 05:27:37;;;;;;;6.77;5.13;;;2.30;99.90;;;;;;5058583;28;20425;-65
2021/01/27 05:30:27;;;;;;;7.83;5.43;;;2.30;99.90;;;;;;5061147;28;20815;-66
2021/01/27 05:32:55;;;;;;;5.93;5.10;;;2.40;99.90;;;;;;5053562;28;20462;-65
2021/01/27 05:35:34;;;;;;;5.20;4.70;;;2.40;99.90;;;;;;5058698;28;20422;-65
2021/01/27 05:38:27;;;;;;;6.10;5.17;;;2.40;99.90;;;;;;5053404;28;20442;-65
2021/01/27 05:41:10;;;;;;;6.67;5.20;;;2.40;99.90;;;;;;5053946;28;20469;-65
2021/01/27 05:43:37;;;;;;;6.37;5.73;;;2.40;99.90;;;;;;5051966;28;20469;-66
2021/01/27 05:46:32;;;;;;;5.90;5.07;;;2.30;99.90;;;;;;5055988;28;20491;-66
2021/01/27 05:49:00;;;;;;;6.50;5.13;;;2.30;99.90;;;;;;5054542;28;20963;-65
2021/01/27 05:51:34;;;;;;;5.60;5.10;;;2.30;99.90;;;;;;5052614;28;20438;-66
2021/01/27 05:54:17;;;;;;;6.30;5.70;;;2.30;99.90;;;;;;5054546;28;20434;-66
2021/01/27 05:56:43;;;;;;;5.10;4.23;;;2.30;99.90;;;;;;5055226;28;20471;-65
2021/01/27 05:59:21;;;;;;;7.70;4.60;;;2.30;99.90;;;;;;5051332;28;20461;-65
2021/01/27 06:01:49;;;;;;;6.70;6.03;;;2.30;99.90;;;;;;5071476;28;20180;-65
2021/01/27 06:04:34;;;;;;;5.77;5.20;;;2.30;99.90;;;;;;5056714;28;20458;-65
2021/01/27 06:07:22;;;;;;;5.63;5.10;;;2.30;99.90;;;;;;5054689;28;20505;-66
2021/01/27 06:09:50;;;;;;;9.90;5.33;;;2.30;99.90;;;;;;5057234;28;20435;-66
2021/01/27 06:12:18;;;;;;;6.00;5.50;;;2.40;99.90;;;;;;5059454;28;20440;-66
2021/01/27 06:14:45;;;;;;;6.00;5.40;;;2.40;99.90;;;;;;5058313;28;21119;-66
2021/01/27 06:17:30;;;;;;;6.07;5.00;;;2.40;99.90;;;;;;5063385;28;20520;-66
2021/01/27 06:20:29;;;;;;;5.87;4.97;;;2.30;99.90;;;;;;5063059;28;20433;-66
2021/01/27 06:23:05;;;;;;;6.30;5.63;;;2.40;99.90;;;;;;5053485;28;20476;-66
2021/01/27 06:25:38;;;;;;;6.07;5.30;;;2.30;99.90;;;;;;5065997;28;20429;-66
2021/01/27 06:28:14;;;;;;;6.40;5.07;;;2.30;99.90;;;;;;5056817;28;20423;-66
2021/01/27 06:31:10;;;;;;;5.77;5.17;;;2.20;99.90;;;;;;5053831;28;20965;-66
2021/01/27 06:34:11;;;;;;;8.70;5.97;;;2.30;99.90;;;;;;5052272;28;20583;-66
2021/01/27 06:36:47;;;;;;;5.97;5.30;;;2.20;99.90;;;;;;5060962;28;20473;-66
2021/01/27 06:39:34;;;;;;;5.77;5.27;;;2.20;99.90;;;;;;5066224;28;20458;-66
2021/01/27 06:42:49;;;;;;;5.60;5.10;;;2.20;99.90;;;;;;5062154;28;20662;-66
2021/01/27 06:45:43;;;;;;;6.20;5.53;;;2.20;99.90;;;;;;5061915;28;20426;-66
2021/01/27 06:48:16;;;;;;;7.67;5.87;;;2.10;99.90;;;;;;5067358;28;20425;-66
2021/01/27 06:50:57;;;;;;;7.03;5.73;;;2.10;99.90;;;;;;5064210;28;20938;-66
2021/01/27 06:53:41;;;;;;;13.43;7.20;;;2.10;99.90;;;;;;5061116;28;20418;-66
2021/01/27 06:56:44;;;;;;;7.03;6.10;;;2.10;99.90;;;;;;5056815;28;20838;-67
2021/01/27 06:59:24;;;;;;;7.90;6.47;;;2.00;99.90;;;;;;5060227;28;20448;-66
2021/01/27 07:02:22;;;;;;;8.80;6.63;;;2.00;99.90;;;;;;5057214;28;21025;-66
2021/01/27 07:05:09;;;;;;;6.90;6.30;;;2.00;99.90;;;;;;5059383;28;20459;-66
2021/01/27 07:07:38;;;;;;;6.93;6.33;;;2.00;99.90;;;;;;5064047;28;20426;-66
2021/01/27 07:10:25;;;;;;;9.77;6.57;;;2.00;99.90;;;;;;5055120;28;20870;-66
2021/01/27 07:13:16;;;;;;;9.30;6.57;;;2.00;99.90;;;;;;5061662;28;20472;-66
2021/01/27 07:16:05;;;;;;;7.47;6.27;;;2.00;99.90;;;;;;5038439;28;20430;-66
2021/01/27 07:18:37;;;;;;;7.60;6.77;;;2.00;99.90;;;;;;5060297;28;20484;-66
2021/01/27 07:21:31;;;;;;;8.23;6.40;;;2.00;99.90;;;;;;5064201;28;20838;-66
2021/01/27 07:24:06;;;;;;;8.17;6.33;;;2.00;99.90;;;;;;5058662;28;20477;-66
2021/01/27 07:26:46;;;;;;;7.03;6.13;;;1.90;99.90;;;;;;5061714;28;20461;-66
2021/01/27 07:29:22;;;;;;;7.70;6.90;;;1.90;99.90;;;;;;5060619;28;20788;-66
2021/01/27 07:31:55;;;;;;;8.93;7.53;;;1.90;99.90;;;;;;5057088;28;20433;-66
2021/01/27 07:35:00;;;;;;;9.40;7.90;;;1.80;99.90;;;;;;5065559;28;20841;-66
2021/01/27 07:37:33;;;;;;;8.93;6.90;;;1.90;99.90;;;;;;5061513;28;20952;-66
2021/01/27 07:40:13;;;;;;;9.23;8.30;;;1.90;99.90;;;;;;5056191;28;20956;-66
2021/01/27 07:43:04;;;;;;;8.43;7.63;;;1.80;99.90;;;;;;5056697;28;20439;-66
2021/01/27 07:45:33;;;;;;;8.67;7.60;;;1.80;99.90;;;;;;5055780;28;20431;-66
2021/01/27 07:48:23;;;;;;;8.77;7.97;;;1.90;99.90;;;;;;5058502;28;20430;-66
2021/01/27 07:50:59;;;;;;;8.77;7.80;;;1.90;99.90;;;;;;5070146;28;20889;-67
2021/01/27 07:53:30;;;;;;;8.83;7.93;;;2.00;99.90;;;;;;5064616;28;20433;-66
2021/01/27 07:56:22;;;;;;;8.83;7.93;;;2.00;99.90;;;;;;5062082;28;20440;-66
2021/01/27 07:59:04;;;;;;;9.00;8.10;;;2.10;99.90;;;;;;5059862;28;20427;-66
2021/01/27 08:01:42;;;;;;;7.93;7.17;;;2.10;99.90;;;;;;5064359;28;20484;-66
2021/01/27 08:04:28;;;;;;;7.83;6.90;;;2.10;99.90;;;;;;5061544;28;20458;-66
2021/01/27 08:06:56;;;;;;;8.97;7.00;;;2.00;99.90;;;;;;5055563;28;20417;-66
2021/01/27 08:09:35;;;;;;;8.47;7.73;;;2.00;99.90;;;;;;5059019;28;20521;-67
2021/01/27 08:12:38;;;;;;;8.00;7.20;;;1.90;99.90;;;;;;5059437;28;20521;-66
2021/01/27 08:15:09;;;;;;;7.23;6.57;;;1.90;99.90;;;;;;5037865;28;20494;-66
2021/01/27 08:17:38;;;;;;;8.70;6.40;;;1.90;99.90;;;;;;5067107;28;20468;-66
2021/01/27 08:20:32;;;;;;;7.53;6.80;;;1.80;99.90;;;;;;5056337;28;20422;-66
2021/01/27 08:22:59;;;;;;;6.80;6.17;;;1.80;99.90;;;;;;5064729;28;20414;-66
2021/01/27 08:25:57;;;;;;;8.37;7.00;;;1.80;99.90;;;;;;5060724;28;20452;-66
2021/01/27 08:28:41;;;;;;;6.97;5.43;;;1.90;99.90;;;;;;5054212;28;20871;-66
2021/01/27 08:31:09;;;;;;;7.00;6.40;;;1.90;99.90;;;;;;5064500;28;20797;-66
2021/01/27 08:33:47;;;;;;;6.47;5.90;;;1.90;99.90;;;;;;5055438;28;20825;-66
2021/01/27 08:36:18;;;;;;;7.27;5.93;;;1.90;99.90;;;;;;5062119;28;20465;-67
2021/01/27 08:38:56;;;;;;;5.87;5.33;;;1.90;99.90;;;;;;5065466;28;20455;-66
2021/01/27 08:41:45;;;;;;;8.27;6.37;;;1.90;99.90;;;;;;5058819;28;20433;-66
2021/01/27 08:44:23;;;;;;;7.03;6.40;;;1.90;99.90;;;;;;5058419;28;20470;-66
2021/01/27 08:46:49;;;;;;;6.30;5.73;;;1.90;99.90;;;;;;5056066;28;20961;-66
2021/01/27 08:49:41;;;;;;;7.13;6.43;;;1.90;99.90;;;;;;5054700;28;20835;-66
2021/01/27 08:52:09;;;;;;;5.47;4.97;;;1.90;99.90;;;;;;5055820;28;20835;-66
2021/01/27 08:54:35;;;;;;;6.13;5.53;;;1.90;99.90;;;;;;5056695;28;20509;-66
2021/01/27 08:57:17;;;;;;;5.20;4.60;;;2.00;99.90;;;;;;5057056;28;20874;-66
2021/01/27 09:00:04;;;;;;;6.50;5.70;;;2.00;99.90;;;;;;5060978;28;20275;-66
2021/01/27 09:02:43;;;;;;;5.57;5.07;;;2.00;99.90;;;;;;5055495;28;21017;-66
2021/01/27 09:05:17;;;;;;;6.40;5.57;;;2.00;99.90;;;;;;5057279;28;20458;-66
2021/01/27 09:08:04;;;;;;;5.33;4.83;;;2.00;99.90;;;;;;5058031;28;20429;-66
2021/01/27 09:10:41;;;;;;;6.30;5.70;;;2.00;99.90;;;;;;5053203;28;20999;-66
2021/01/27 09:13:42;;;;;;;5.70;5.10;;;2.00;99.90;;;;;;5056593;28;20425;-66
2021/01/27 09:16:16;;;;;;;5.63;5.13;;;2.00;99.90;;;;;;5052224;28;20422;-66
2021/01/27 09:18:43;;;;;;;5.70;5.20;;;2.00;99.90;;;;;;5062082;28;20509;-66
2021/01/27 09:21:16;;;;;;;5.63;5.13;;;2.10;99.90;;;;;;5061609;28;20441;-66
2021/01/27 09:23:43;;;;;;;5.07;4.60;;;2.10;99.90;;;;;;5060634;28;20461;-66
2021/01/27 09:26:18;;;;;;;4.90;4.50;;;2.10;99.90;;;;;;5065415;28;20782;-66
2021/01/27 09:28:44;;;;;;;5.30;4.80;;;2.10;99.90;;;;;;5065222;28;20471;-66
2021/01/27 09:31:18;;;;;;;5.60;5.17;;;2.20;99.90;;;;;;5065673;28;20517;-66
2021/01/27 09:33:45;;;;;;;5.60;5.10;;;2.20;99.90;;;;;;5055421;28;20831;-66
2021/01/27 09:36:31;;;;;;;5.70;5.17;;;2.20;99.90;;;;;;5052388;28;20429;-66
2021/01/27 09:38:58;;;;;;;4.57;4.17;;;2.30;99.90;;;;;;5052250;28;20515;-66
2021/01/27 09:41:29;;;;;;;5.03;4.63;;;2.30;99.90;;;;;;5065551;28;20493;-66
2021/01/27 09:43:56;;;;;;;5.93;5.33;;;2.40;99.90;;;;;;5059883;28;20451;-66
2021/01/27 09:46:31;;;;;;;5.77;5.27;;;2.40;99.90;;;;;;5053696;28;20434;-66
2021/01/27 09:49:05;;;;;;;5.37;4.97;;;2.40;99.90;;;;;;5056683;28;20418;-66
2021/01/27 09:51:32;;;;;;;5.83;5.33;;;2.40;99.90;;;;;;5053129;28;20426;-66
2021/01/27 09:54:00;;;;;;;6.40;5.77;;;2.40;99.90;;;;;;5063993;28;20931;-66
2021/01/27 09:56:27;;;;;;;6.43;5.83;;;2.40;99.90;;;;;;5062252;28;20443;-66
2021/01/27 09:58:53;;;;;;;6.47;5.97;;;2.50;99.90;;;;;;5060785;28;20434;-66
2021/01/27 10:01:25;;;;;;;7.00;6.40;;;2.40;99.90;;;;;;5055523;28;20927;-66
2021/01/27 10:04:16;;;;;;;7.30;6.63;;;2.50;99.90;;;;;;5056719;28;20457;-66
2021/01/27 10:06:49;;;;;;;7.67;6.97;;;2.50;99.90;;;;;;5057782;28;20413;-66
2021/01/27 10:09:27;;;;;;;7.73;6.93;;;2.40;99.90;;;;;;5062094;28;20500;-66
2021/01/27 10:12:02;;;;;;;8.50;7.70;;;2.50;99.90;;;;;;5063756;28;20414;-67
2021/01/27 10:14:31;;;;;;;8.50;7.70;;;2.50;99.90;;;;;;5053816;28;20491;-66
2021/01/27 10:17:03;;;;;;;10.20;9.27;;;2.60;99.90;;;;;;5055509;28;20970;-66
2021/01/27 10:19:50;;;;;;;8.80;8.00;;;2.70;99.90;;;;;;5061666;28;20422;-67
2021/01/27 10:22:29;;;;;;;9.43;8.43;;;2.70;99.90;;;;;;5055867;28;20422;-66
2021/01/27 10:25:00;;;;;;;9.17;8.40;;;2.70;99.90;;;;;;5067932;28;20485;-66
2021/01/27 10:27:36;;;;;;;8.10;7.40;;;2.70;99.90;;;;;;5065311;28;20433;-66
2021/01/27 10:30:24;;;;;;;9.07;8.17;;;2.70;99.90;;;;;;5067284;28;20780;-66
2021/01/27 10:32:50;;;;;;;9.27;8.47;;;2.80;99.90;;;;;;5057475;28;20425;-67
2021/01/27 10:35:24;;;;;;;9.30;8.40;;;2.80;99.90;;;;;;5060326;28;20515;-66
2021/01/27 10:37:51;;;;;;;9.13;8.07;;;2.80;99.90;;;;;;5061898;28;20680;-66
2021/01/27 10:40:29;;;;;;;8.77;8.07;;;2.90;99.90;;;;;;5055408;28;20453;-66
2021/01/27 10:43:22;;;;;;;8.60;7.73;;;2.90;99.90;;;;;;5062817;28;20438;-66
2021/01/27 10:45:48;;;;;;;8.63;7.83;;;2.90;99.90;;;;;;5066701;28;20438;-67
2021/01/27 10:48:21;;;;;;;8.00;7.30;;;3.00;99.90;;;;;;5060757;28;20485;-66
2021/01/27 10:50:50;;;;;;;7.63;6.97;;;3.10;99.90;;;;;;5056525;28;20548;-66
2021/01/27 10:53:18;;;;;;;6.60;6.00;;;3.10;99.90;;;;;;5061720;28;20817;-67
2021/01/27 10:55:56;;;;;;;8.30;7.60;;;3.20;99.90;;;;;;5061489;28;20816;-66
2021/01/27 10:58:23;;;;;;;7.13;6.43;;;3.20;99.90;;;;;;5063375;28;20517;-67
2021/01/27 11:00:49;;;;;;;7.50;6.80;;;3.30;99.90;;;;;;5054839;28;20430;-67
2021/01/27 11:03:17;;;;;;;6.40;5.90;;;3.40;99.90;;;;;;5067904;28;20441;-66
2021/01/27 11:05:42;;;;;;;7.00;6.40;;;3.40;99.90;;;;;;5058421;28;20615;-66
2021/01/27 11:08:13;;;;;;;8.03;7.33;;;3.50;99.90;;;;;;5054690;28;20521;-66
2021/01/27 11:10:39;;;;;;;7.60;6.90;;;3.50;99.90;;;;;;5057010;28;20169;-67
2021/01/27 11:13:04;;;;;;;7.03;6.43;;;3.60;99.90;;;;;;5062018;28;20483;-67
2021/01/27 11:15:30;;;;;;;7.30;6.53;;;3.70;99.90;;;;;;5056542;28;20215;-67
2021/01/27 11:17:55;;;;;;;7.47;6.77;;;3.60;99.90;;;;;;5063902;28;20163;-66
2021/01/27 11:20:23;;;;;;;6.93;6.33;;;3.70;99.90;;;;;;5062096;28;20176;-66
2021/01/27 11:22:50;;;;;;;8.30;6.90;;;3.70;99.90;;;;;;5054115;28;20509;-65
2021/01/27 11:25:17;;;;;;;8.03;6.80;;;3.80;99.90;;;;;;5055943;28;21026;-65
2021/01/27 11:27:43;;;;;;;7.00;6.33;;;3.80;99.90;;;;;;5060826;28;20533;-65
2021/01/27 11:30:10;;;;;;;7.70;6.77;;;3.90;99.90;;;;;;5060578;28;20498;-65
2021/01/27 11:32:35;;;;;;;8.53;6.50;;;4.00;99.90;;;;;;5054271;28;20481;-66
2021/01/27 11:35:01;;;;;;;6.80;6.20;;;4.00;99.90;;;;;;5063549;28;22342;-65
2021/01/27 11:37:27;;;;;;;7.00;6.30;;;4.00;99.90;;;;;;5054417;28;20263;-65
2021/01/27 11:39:52;;;;;;;6.60;6.00;;;4.00;99.90;;;;;;5054298;28;20533;-66
2021/01/27 11:42:18;;;;;;;6.60;6.03;;;4.00;99.90;;;;;;5055004;28;20227;-66
2021/01/27 11:44:44;;;;;;;6.93;6.37;;;3.90;99.90;;;;;;5054813;28;20733;-66
2021/01/27 11:47:09;;;;;;;6.80;6.20;;;3.90;99.90;;;;;;5056901;28;20188;-66
2021/01/27 11:49:35;;;;;;;6.90;6.30;;;3.90;99.90;;;;;;5056450;28;20682;-66
2021/01/27 11:52:03;;;;;;;6.93;6.30;;;3.90;99.90;;;;;;5056137;28;20172;-66
2021/01/27 11:54:28;;;;;;;7.00;6.30;;;3.90;99.90;;;;;;5054403;28;20437;-66
2021/01/27 11:56:54;;;;;;;7.10;6.50;;;3.90;99.90;;;;;;5060992;28;20464;-66
2021/01/27 11:59:19;;;;;;;7.47;6.77;;;3.90;99.90;;;;;;5070814;28;20188;-66
2021/01/27 12:01:45;;;;;;;7.07;6.47;;;3.90;99.90;;;;;;5056375;28;20684;-66
2021/01/27 12:04:10;;;;;;;6.80;6.20;;;3.90;99.90;;;;;;5057622;28;20199;-66
2021/01/27 12:06:36;;;;;;;7.97;7.17;;;4.00;99.90;;;;;;5056775;28;20179;-66
2021/01/27 12:09:01;;;;;;;6.60;6.07;;;3.90;99.90;;;;;;5054539;28;20184;-66
2021/01/27 12:11:27;;;;;;;5.83;5.33;;;3.90;99.90;;;;;;5056046;28;20266;-66
2021/01/27 12:13:52;;;;;;;7.00;6.50;;;3.90;99.90;;;;;;5051500;28;20197;-66
2021/01/27 12:16:18;;;;;;;6.47;5.90;;;3.90;99.90;;;;;;5058290;28;20181;-66
2021/01/27 12:18:44;;;;;;;6.73;6.07;;;3.80;99.90;;;;;;5058135;28;20263;-66
2021/01/27 12:21:09;;;;;;;7.20;6.50;;;3.80;99.90;;;;;;5059755;28;20215;-66
2021/01/27 12:23:35;;;;;;;7.17;6.47;;;3.80;99.90;;;;;;5062863;28;20227;-66
2021/01/27 12:26:01;;;;;;;7.07;6.47;;;3.90;99.90;;;;;;5063388;28;20560;-66
2021/01/27 12:28:26;;;;;;;6.87;6.27;;;3.90;99.90;;;;;;5055287;28;20437;-66
2021/01/27 12:30:52;;;;;;;7.43;6.83;;;3.90;99.90;;;;;;5056684;28;20210;-66
2021/01/27 12:33:17;;;;;;;7.60;6.90;;;3.90;99.90;;;;;;5052520;28;20246;-66
2021/01/27 12:35:43;;;;;;;8.33;7.63;;;4.00;99.90;;;;;;5057141;28;20183;-66
2021/01/27 12:38:08;;;;;;;7.60;6.97;;;4.10;99.90;;;;;;5053985;28;20164;-66
2021/01/27 12:40:34;;;;;;;7.50;6.80;;;4.10;99.90;;;;;;5057471;28;20957;-66
2021/01/27 12:43:00;;;;;;;9.13;8.23;;;4.10;99.90;;;;;;5060759;28;20237;-66
2021/01/27 12:45:28;;;;;;;8.50;7.13;;;4.20;99.90;;;;;;5058308;28;20176;-66
2021/01/27 12:47:53;;;;;;;7.00;6.40;;;4.20;99.90;;;;;;5056858;28;20184;-66
2021/01/27 12:50:20;;;;;;;7.77;7.07;;;4.10;99.90;;;;;;5060136;28;20550;-66
2021/01/27 12:52:45;;;;;;;7.17;6.57;;;4.10;99.90;;;;;;5052618;28;20172;-66
2021/01/27 12:55:14;;;;;;;7.93;7.23;;;4.10;99.90;;;;;;5055030;28;21050;-66
2021/01/27 12:57:41;;;;;;;7.67;6.97;;;4.10;99.90;;;;;;5056129;28;20523;-66
2021/01/27 13:00:09;;;;;;;7.83;7.10;;;4.10;99.90;;;;;;5053403;28;20431;-66
2021/01/27 13:02:35;;;;;;;7.13;6.53;;;4.00;99.90;;;;;;5054872;28;20433;-66
2021/01/27 13:05:00;;;;;;;7.27;6.50;;;4.00;99.90;;;;;;5059059;28;20461;-66
2021/01/27 13:07:26;;;;;;;8.47;7.67;;;4.10;99.90;;;;;;5055291;28;20515;-66
2021/01/27 13:09:51;;;;;;;8.30;7.50;;;4.10;99.90;;;;;;5056707;28;20177;-66
2021/01/27 13:12:17;;;;;;;7.93;7.27;;;4.10;99.90;;;;;;5056990;28;20569;-66
2021/01/27 13:14:42;;;;;;;8.53;7.70;;;4.10;99.90;;;;;;5058259;28;20176;-66
2021/01/27 13:17:08;;;;;;;8.60;7.80;;;4.10;99.90;;;;;;5052511;28;20179;-66
2021/01/27 13:19:33;;;;;;;7.73;7.03;;;4.20;99.90;;;;;;5053588;28;20190;-66
2021/01/27 13:21:59;;;;;;;10.57;9.67;;;4.20;99.90;;;;;;5057268;28;20584;-66
2021/01/27 13:24:24;;;;;;;10.23;9.33;;;4.20;99.90;;;;;;5058368;28;20273;-67
2021/01/27 13:26:50;;;;;;;8.33;7.50;;;4.20;99.90;;;;;;5056850;28;20176;-66
2021/01/27 13:29:15;;;;;;;8.00;7.30;;;4.20;99.90;;;;;;5056012;28;20175;-66